createdAt,value
2022-10-22T06:44:53.186Z,2.50
2022-10-22T06:48:04.837Z,1.40
2022-10-22T06:51:14.804Z,4.10
2022-10-22T06:54:24.814Z,2.87
2022-10-22T06:57:34.743Z,2.80
2022-10-22T07:00:44.650Z,3.00
2022-10-22T07:03:55.897Z,2.53
2022-10-22T07:07:05.811Z,4.63
2022-10-22T07:10:15.862Z,2.00
2022-10-22T07:13:25.778Z,2.13
2022-10-22T07:16:35.735Z,1.33
2022-10-22T07:19:49.710Z,1.03
2022-10-22T07:23:01.212Z,0.83
2022-10-22T07:26:14.036Z,0.70
2022-10-22T07:29:23.929Z,0.77
2022-10-22T07:32:33.818Z,0.83
2022-10-22T07:35:45.043Z,0.97
2022-10-22T07:38:56.761Z,0.80
2022-10-22T07:42:06.749Z,0.80
2022-10-22T07:45:16.719Z,0.80
2022-10-22T07:48:26.847Z,0.80
2022-10-22T07:51:38.058Z,1.20
2022-10-22T07:54:47.997Z,0.60
2022-10-22T07:57:57.934Z,0.80
2022-10-22T08:01:08.119Z,0.80
2022-10-22T08:04:20.967Z,0.70
2022-10-22T08:07:32.385Z,0.90
2022-10-22T08:10:43.633Z,2.23
2022-10-22T08:13:54.454Z,2.57
2022-10-22T08:17:04.812Z,2.13
2022-10-22T08:20:15.130Z,2.00
2022-10-22T08:23:29.061Z,1.13
2022-10-22T08:26:41.463Z,3.10
2022-10-22T08:29:51.389Z,0.60
2022-10-22T08:33:01.326Z,0.80
2022-10-22T08:36:13.441Z,0.70
2022-10-22T08:39:27.749Z,0.80
2022-10-22T08:43:00.017Z,0.90
2022-10-22T08:46:19.718Z,0.70
2022-10-22T08:49:38.420Z,7.67
2022-10-22T08:52:57.692Z,1.00
2022-10-22T08:56:09.161Z,1.10
2022-10-22T08:59:27.824Z,1.13
2022-10-22T09:02:48.069Z,2.53
2022-10-22T09:06:06.609Z,1.30
2022-10-22T09:09:19.072Z,1.03
2022-10-22T09:12:51.135Z,0.90
2022-10-22T09:16:11.748Z,0.90
2022-10-22T09:19:33.205Z,1.10
2022-10-22T09:22:51.062Z,1.37
2022-10-22T09:26:01.248Z,1.30
2022-10-22T09:29:20.719Z,1.00
2022-10-22T09:32:30.812Z,1.40
2022-10-22T09:35:46.928Z,2.17
2022-10-22T09:38:59.292Z,1.20
2022-10-22T09:42:11.117Z,1.17
2022-10-22T09:45:25.370Z,1.13
2022-10-22T09:48:39.248Z,0.93
2022-10-22T09:51:57.881Z,3.67
2022-10-22T09:55:14.415Z,0.90
2022-10-22T09:58:24.754Z,1.10
2022-10-22T10:01:38.582Z,2.10
2022-10-22T10:04:49.772Z,1.40
2022-10-22T10:08:13.343Z,1.07
2022-10-22T10:11:29.704Z,1.10
2022-10-22T10:14:51.540Z,1.30
2022-10-22T10:18:12.403Z,1.80
2022-10-22T10:21:40.178Z,1.63
2022-10-22T10:25:03.948Z,1.40
2022-10-22T10:28:29.744Z,1.53
2022-10-22T10:31:50.653Z,1.90
2022-10-22T10:35:16.811Z,1.10
2022-10-22T10:38:40.443Z,1.30
2022-10-22T10:42:05.533Z,1.33
2022-10-22T10:45:19.215Z,1.53
2022-10-22T10:48:45.968Z,1.40
2022-10-22T10:52:03.276Z,1.60
2022-10-22T10:55:21.966Z,1.10
2022-10-22T10:58:37.042Z,1.10
2022-10-22T11:02:11.060Z,1.40
2022-10-22T11:05:31.940Z,1.30
2022-10-22T11:08:54.968Z,1.20
2022-10-22T11:12:10.407Z,2.00
2022-10-22T11:15:30.854Z,1.30
2022-10-22T11:18:46.421Z,1.20
2022-10-22T11:22:05.190Z,1.00
2022-10-22T11:25:20.610Z,1.23
2022-10-22T11:28:34.818Z,1.13
2022-10-22T11:31:45.461Z,1.10
2022-10-22T11:34:59.632Z,1.50
2022-10-22T11:38:17.724Z,1.10
2022-10-22T11:41:31.384Z,1.10
2022-10-22T11:44:49.513Z,1.00
2022-10-22T11:48:07.861Z,1.30
2022-10-22T11:51:36.052Z,1.23
2022-10-22T11:54:46.124Z,1.87
2022-10-22T11:58:01.065Z,1.33
2022-10-22T12:01:23.210Z,1.67
2022-10-22T12:04:43.114Z,1.50
2022-10-22T12:07:57.206Z,1.17
2022-10-22T12:11:17.854Z,2.50
2022-10-22T12:14:34.950Z,1.60
2022-10-22T12:17:45.055Z,1.27
2022-10-22T12:20:58.400Z,1.40
2022-10-22T12:24:11.932Z,1.30
2022-10-22T12:27:28.787Z,1.93
2022-10-22T12:30:41.481Z,3.87
2022-10-22T12:33:57.629Z,1.77
2022-10-22T12:37:08.411Z,1.40
2022-10-22T12:40:20.905Z,1.73
2022-10-22T12:43:33.511Z,1.40
2022-10-22T12:46:46.778Z,2.50
2022-10-22T12:49:59.228Z,3.33
2022-10-22T12:53:18.764Z,1.47
2022-10-22T12:56:44.740Z,1.70
2022-10-22T13:03:26.620Z,1.77
2022-10-22T13:06:37.268Z,1.20
2022-10-22T13:09:49.689Z,1.50
2022-10-22T13:13:03.356Z,1.40
2022-10-22T13:16:16.596Z,1.20
2022-10-22T13:19:44.489Z,1.40
2022-10-22T13:22:58.147Z,1.70
2022-10-22T13:26:17.917Z,1.70
2022-10-22T13:29:27.854Z,1.17
2022-10-22T13:32:51.821Z,1.40
2022-10-22T13:36:03.770Z,1.37
2022-10-22T13:39:17.409Z,2.10
2022-10-22T13:42:27.420Z,1.17
2022-10-22T13:45:37.395Z,3.00
2022-10-22T13:48:48.864Z,1.97
2022-10-22T13:52:01.097Z,1.40
2022-10-22T13:55:15.922Z,5.70
2022-10-22T13:58:26.185Z,1.53
2022-10-22T14:01:37.938Z,1.57
2022-10-22T14:04:47.948Z,1.23
2022-10-22T14:08:00.770Z,1.50
2022-10-22T14:11:12.544Z,3.33
2022-10-22T14:14:22.550Z,1.53
2022-10-22T14:17:32.721Z,1.20
2022-10-22T14:20:43.601Z,3.17
2022-10-22T14:23:54.959Z,2.40
2022-10-22T14:27:07.961Z,2.23
2022-10-22T14:30:19.827Z,1.73
2022-10-22T14:33:34.654Z,1.30
2022-10-22T14:36:45.019Z,1.60
2022-10-22T14:40:02.476Z,1.20
2022-10-22T14:43:12.896Z,1.60
2022-10-22T14:46:25.650Z,1.80
2022-10-22T14:49:38.342Z,1.50
2022-10-22T14:52:49.201Z,2.37
2022-10-22T14:56:03.123Z,1.33
2022-10-22T14:59:13.346Z,1.60
2022-10-22T15:02:23.813Z,1.50
2022-10-22T15:05:41.220Z,2.00
2022-10-22T15:08:51.429Z,1.83
2022-10-22T15:12:02.786Z,1.40
2022-10-22T15:15:17.260Z,2.13
2022-10-22T15:18:29.645Z,5.80
2022-10-22T15:24:53.615Z,4.27
2022-10-22T15:28:09.873Z,2.00
2022-10-22T15:31:44.684Z,2.60
2022-10-22T15:34:55.842Z,3.03
2022-10-22T15:38:10.088Z,2.63
2022-10-22T15:41:20.367Z,2.10
2022-10-22T15:44:35.327Z,2.00
2022-10-22T15:47:49.835Z,2.40
2022-10-22T15:51:00.065Z,2.33
2022-10-22T15:54:15.287Z,4.03
2022-10-22T15:57:25.273Z,4.20
2022-10-22T16:00:37.877Z,3.87
2022-10-22T16:03:47.950Z,3.33
2022-10-22T16:06:59.022Z,3.87
2022-10-22T16:10:12.795Z,3.63
2022-10-22T16:13:24.720Z,1.80
2022-10-22T16:16:39.486Z,1.97
2022-10-22T16:19:51.699Z,2.43
2022-10-22T16:23:01.687Z,2.37
2022-10-22T16:26:11.736Z,8.40
2022-10-22T16:29:21.664Z,6.50
2022-10-22T16:32:32.963Z,2.97
2022-10-22T16:35:43.771Z,2.50
2022-10-22T16:38:58.570Z,2.20
2022-10-22T16:42:10.633Z,2.17
2022-10-22T16:45:20.561Z,2.07
2022-10-22T16:48:34.464Z,1.87
2022-10-22T16:51:44.446Z,2.17
2022-10-22T16:54:58.143Z,12.67
2022-10-22T16:58:10.582Z,5.63
2022-10-22T17:01:24.787Z,3.20
2022-10-22T17:04:36.780Z,3.10
2022-10-22T17:07:49.248Z,1.90
2022-10-22T17:10:59.243Z,1.57
2022-10-22T17:14:09.345Z,2.00
2022-10-22T17:17:19.389Z,2.37
2022-10-22T17:20:33.442Z,2.27
2022-10-22T17:23:49.751Z,1.83
2022-10-22T17:26:59.762Z,3.67
2022-10-22T17:30:16.271Z,3.60
2022-10-22T17:33:26.272Z,13.23
2022-10-22T17:36:38.205Z,9.07
2022-10-22T17:39:48.868Z,10.70
2022-10-22T17:42:58.914Z,6.03
2022-10-22T17:46:11.214Z,5.17
2022-10-22T17:49:21.887Z,2.60
2022-10-22T17:52:46.367Z,2.57
2022-10-22T17:56:01.757Z,5.47
2022-10-22T17:59:14.823Z,5.77
2022-10-22T18:02:26.887Z,6.13
2022-10-22T18:05:39.263Z,4.27
2022-10-22T18:09:06.853Z,4.03
2022-10-22T18:12:18.131Z,4.67
2022-10-22T18:15:33.491Z,4.60
2022-10-22T18:18:47.468Z,13.57
2022-10-22T18:21:57.408Z,16.30
2022-10-22T18:25:09.602Z,46.93
2022-10-22T18:28:20.620Z,21.30
2022-10-22T18:31:30.974Z,13.63
2022-10-22T18:34:41.032Z,4.50
2022-10-22T18:37:53.294Z,19.03
2022-10-22T18:41:06.968Z,3.93
2022-10-22T18:44:23.786Z,3.77
2022-10-22T18:47:33.748Z,3.13
2022-10-22T18:50:43.725Z,4.10
2022-10-22T18:54:05.401Z,2.57
2022-10-22T18:57:25.304Z,5.80
2022-10-22T19:00:36.797Z,14.40
2022-10-22T19:03:55.043Z,13.97
2022-10-22T19:07:05.603Z,16.83
2022-10-22T19:10:21.682Z,6.47
2022-10-22T19:13:32.895Z,5.93
2022-10-22T19:16:43.007Z,7.00
2022-10-22T19:19:52.963Z,28.90
2022-10-22T19:23:03.070Z,18.37
2022-10-22T19:26:16.143Z,12.33
2022-10-22T19:29:27.385Z,23.77
2022-10-22T19:32:42.586Z,14.57
2022-10-22T19:35:52.822Z,9.90
2022-10-22T19:39:04.158Z,8.53
2022-10-22T19:42:16.750Z,7.63
2022-10-22T19:45:28.162Z,12.50
2022-10-22T19:48:39.034Z,36.47
2022-10-22T19:51:52.240Z,32.47
2022-10-22T19:55:02.202Z,44.20
2022-10-22T19:58:15.892Z,41.13
2022-10-22T20:01:28.073Z,66.07
2022-10-22T20:04:40.473Z,55.90
2022-10-22T20:07:50.394Z,16.67
2022-10-22T20:11:09.766Z,14.83
2022-10-22T20:14:20.150Z,12.17
2022-10-22T20:17:31.577Z,7.80
2022-10-22T20:20:41.629Z,11.97
2022-10-22T20:23:57.420Z,7.07
2022-10-22T20:27:07.389Z,8.37
2022-10-22T20:30:21.466Z,5.83
2022-10-22T20:33:33.760Z,6.30
2022-10-22T20:36:43.702Z,6.27
2022-10-22T20:39:53.667Z,6.73
2022-10-22T20:43:03.562Z,6.67
2022-10-22T20:46:18.050Z,9.03
2022-10-22T20:49:29.302Z,8.07
2022-10-22T20:52:39.373Z,7.07
2022-10-22T20:55:58.347Z,4.50
2022-10-22T20:59:10.891Z,5.30
2022-10-22T21:02:20.852Z,4.37
2022-10-22T21:05:32.079Z,5.90
2022-10-22T21:08:41.999Z,4.27
2022-10-22T21:15:08.854Z,6.60
2022-10-22T21:18:21.670Z,4.73
2022-10-22T21:21:35.393Z,4.97
2022-10-22T21:24:45.365Z,2.73
2022-10-22T21:27:55.365Z,1.83
2022-10-22T21:31:06.487Z,2.30
2022-10-22T21:34:19.634Z,2.20
2022-10-22T21:37:35.136Z,2.93
2022-10-22T21:40:45.063Z,2.30
2022-10-22T21:43:55.001Z,2.90
2022-10-22T21:47:05.037Z,2.53
2022-10-22T21:50:15.220Z,2.10
2022-10-22T21:53:29.286Z,1.80
2022-10-22T21:56:42.633Z,2.63
2022-10-22T21:59:56.581Z,9.83
2022-10-22T22:03:08.323Z,13.60
2022-10-22T22:06:21.445Z,4.57
2022-10-22T22:09:38.453Z,2.50
2022-10-22T22:12:48.364Z,2.27
2022-10-22T22:16:01.496Z,3.33
2022-10-22T22:19:11.507Z,2.70
2022-10-22T22:22:21.393Z,4.97
2022-10-22T22:25:34.869Z,2.43
2022-10-22T22:28:44.953Z,1.70
2022-10-22T22:31:54.982Z,2.00
2022-10-22T22:35:05.340Z,2.30
2022-10-22T22:38:15.247Z,1.80
2022-10-22T22:41:26.466Z,2.00
2022-10-22T22:44:39.906Z,1.60
2022-10-22T22:47:49.868Z,1.67
2022-10-22T22:51:00.761Z,1.80
2022-10-22T22:54:11.837Z,2.27
2022-10-22T22:57:31.477Z,1.90
2022-10-22T23:03:58.059Z,1.70
